Terminal Aerodrome Forecast
Issued by NWS

Home | Current Version | Previous Version | Text Only | Print | Product List | Glossary On
Versions: 1 2 3 4 5 6 7 8 9 10 11 12 13 14 15 16 17 18 19 20 21 22 23 24
000
FTUS41 KOKX 231700
TAFGON
TAF
KGON 231732Z 2318/2418 07011KT P6SM SCT040 BKN060
     FM240200 06006KT P6SM SCT040
     FM240600 02005KT P6SM FEW040
     FM241500 05009G15KT P6SM SCT050=

USA.gov is the U.S. government's official web portal to all federal, state and local government web resources and services.